Time;durP1;ratioP1;P1;durP2;ratioP2;P2;SDS_P1;SDS_P2;PMS_P1;PMS_P2;Temp;Humidity;BMP_temperature;BMP_pressure;BME280_temperature;BME280_humidity;BME280_pressure;Samples;Min_cycle;Max_cycle;Signal;HPM_P1;HPM_P2
2023/03/06 00:02:17;;;;;;;11.93;7.87;;;7.10;56.20;;;;;;6246003;28;20483;-64
2023/03/06 00:05:20;;;;;;;8.80;7.00;;;7.10;56.30;;;;;;6235271;28;20474;-61
2023/03/06 00:08:26;;;;;;;10.30;8.60;;;7.20;56.50;;;;;;6232447;28;20521;-64
2023/03/06 00:11:29;;;;;;;9.90;7.97;;;7.10;56.50;;;;;;6236317;28;20478;-63
2023/03/06 00:14:33;;;;;;;11.63;8.07;;;7.20;56.30;;;;;;6234026;28;20554;-60
2023/03/06 00:17:36;;;;;;;12.83;8.27;;;7.20;56.10;;;;;;6236741;28;20471;-63
2023/03/06 00:20:40;;;;;;;10.60;8.13;;;7.20;56.00;;;;;;6228456;28;20475;-59
2023/03/06 00:23:45;;;;;;;10.17;8.43;;;7.10;56.10;;;;;;6234113;28;20479;-67
2023/03/06 00:26:48;;;;;;;11.87;7.97;;;7.10;56.30;;;;;;6224147;28;20490;-64
2023/03/06 00:29:55;;;;;;;8.80;7.87;;;7.10;56.80;;;;;;6224934;28;20471;-64
2023/03/06 00:32:58;;;;;;;9.20;8.00;;;7.00;58.70;;;;;;6236412;28;20471;-60
2023/03/06 00:36:04;;;;;;;8.87;7.77;;;7.10;58.80;;;;;;6237979;28;20467;-61
2023/03/06 00:39:09;;;;;;;12.53;8.00;;;7.10;57.10;;;;;;6243410;28;20806;-61
2023/03/06 00:42:12;;;;;;;11.53;7.37;;;7.10;56.80;;;;;;6235725;28;20476;-65
2023/03/06 00:45:16;;;;;;;12.83;8.20;;;7.10;56.60;;;;;;6229819;28;20559;-65
2023/03/06 00:48:19;;;;;;;11.53;8.37;;;7.00;56.50;;;;;;6245042;28;20486;-64
2023/03/06 00:51:22;;;;;;;9.37;8.37;;;7.00;56.70;;;;;;6238656;28;20593;-65
2023/03/06 00:54:27;;;;;;;11.70;8.47;;;6.90;56.70;;;;;;6240660;28;20529;-66
2023/03/06 00:57:30;;;;;;;10.90;7.63;;;6.90;56.90;;;;;;6243071;28;20472;-61
2023/03/06 01:00:33;;;;;;;8.30;7.20;;;6.90;56.90;;;;;;6237765;28;20484;-67
2023/03/06 01:03:37;;;;;;;9.53;8.33;;;6.90;57.00;;;;;;6247238;28;20474;-67
2023/03/06 01:06:40;;;;;;;11.67;8.73;;;6.80;57.10;;;;;;6241481;28;20490;-63
2023/03/06 01:09:45;;;;;;;13.33;7.70;;;6.80;57.20;;;;;;6228415;28;20472;-66
2023/03/06 01:12:48;;;;;;;9.27;8.27;;;6.80;57.40;;;;;;6228421;28;20491;-66
2023/03/06 01:15:52;;;;;;;9.80;8.10;;;6.90;57.40;;;;;;6228291;28;20495;-67
2023/03/06 01:18:55;;;;;;;8.97;8.07;;;6.90;57.30;;;;;;6228450;28;20485;-66
2023/03/06 01:21:59;;;;;;;8.13;7.10;;;6.90;57.20;;;;;;6228334;28;20476;-67
2023/03/06 01:25:04;;;;;;;10.40;8.30;;;6.90;57.20;;;;;;6228181;28;20472;-67
2023/03/06 01:28:07;;;;;;;9.70;7.47;;;6.90;57.20;;;;;;6228609;28;20475;-63
2023/03/06 01:31:11;;;;;;;12.50;8.73;;;6.80;57.10;;;;;;6228709;28;20476;-64
2023/03/06 01:34:14;;;;;;;12.70;7.87;;;6.80;56.90;;;;;;6229438;28;20499;-65
2023/03/06 01:37:17;;;;;;;9.00;7.23;;;6.80;57.10;;;;;;6252492;28;20812;-65
2023/03/06 01:40:22;;;;;;;11.30;7.90;;;6.90;57.40;;;;;;6251446;28;20471;-62
2023/03/06 01:43:29;;;;;;;12.90;8.30;;;6.90;57.20;;;;;;6252323;28;20807;-65
2023/03/06 01:46:40;;;;;;;10.70;8.27;;;6.90;57.20;;;;;;6252295;28;20454;-65
2023/03/06 01:49:43;;;;;;;10.60;8.23;;;6.90;57.20;;;;;;6252990;28;20459;-65
2023/03/06 01:52:50;;;;;;;8.30;7.03;;;6.90;57.20;;;;;;6253159;28;20474;-65
2023/03/06 01:55:55;;;;;;;10.07;7.87;;;6.90;57.20;;;;;;6252707;28;20926;-64
2023/03/06 01:59:00;;;;;;;12.87;8.90;;;6.90;57.10;;;;;;6252477;28;20482;-65
2023/03/06 02:02:06;;;;;;;12.67;9.07;;;6.90;57.20;;;;;;6260200;28;20788;-65
2023/03/06 02:05:09;;;;;;;12.07;9.40;;;6.80;57.10;;;;;;6277076;28;20477;-65
2023/03/06 02:08:17;;;;;;;11.17;8.20;;;6.80;57.50;;;;;;6266932;28;20477;-60
2023/03/06 02:11:24;;;;;;;13.23;7.93;;;6.70;57.50;;;;;;6276941;28;20470;-60
2023/03/06 02:14:27;;;;;;;9.93;8.93;;;6.70;57.80;;;;;;6276483;28;20478;-61
2023/03/06 02:17:30;;;;;;;10.70;7.70;;;6.70;57.80;;;;;;6276470;28;20798;-60
2023/03/06 02:20:39;;;;;;;13.00;7.87;;;6.70;58.10;;;;;;6276987;28;20474;-60
2023/03/06 02:23:54;;;;;;;11.77;8.90;;;6.70;58.00;;;;;;6277852;28;20478;-60
2023/03/06 02:27:00;;;;;;;10.73;8.53;;;6.70;57.90;;;;;;6276885;28;20478;-61
2023/03/06 02:30:07;;;;;;;10.03;7.77;;;6.80;57.80;;;;;;6276719;28;20470;-61
2023/03/06 02:33:12;;;;;;;13.10;8.27;;;6.80;57.70;;;;;;6276748;28;20486;-61
2023/03/06 02:36:16;;;;;;;12.63;9.40;;;6.80;57.70;;;;;;6258248;28;20802;-61
2023/03/06 02:39:25;;;;;;;9.80;7.67;;;6.70;57.60;;;;;;6251622;28;20486;-62
2023/03/06 02:42:30;;;;;;;9.77;8.10;;;6.70;58.10;;;;;;6252202;28;20483;-61
2023/03/06 02:45:36;;;;;;;11.50;8.50;;;6.60;58.10;;;;;;6251394;28;20470;-61
2023/03/06 02:48:39;;;;;;;15.20;8.60;;;6.70;58.30;;;;;;6251137;28;20475;-62
2023/03/06 02:51:42;;;;;;;16.20;9.47;;;6.70;58.20;;;;;;6251230;28;20478;-65
2023/03/06 02:54:46;;;;;;;10.23;8.80;;;6.60;58.30;;;;;;6250414;28;20474;-65
2023/03/06 02:57:51;;;;;;;11.47;8.90;;;6.60;58.40;;;;;;6251361;28;20482;-61
2023/03/06 03:00:54;;;;;;;9.07;7.93;;;6.60;58.40;;;;;;6250566;28;20566;-61
2023/03/06 03:03:58;;;;;;;12.87;9.00;;;6.60;58.40;;;;;;6274583;28;20481;-61
2023/03/06 03:07:01;;;;;;;10.10;8.20;;;6.60;58.70;;;;;;6275380;28;20544;-61
2023/03/06 03:10:05;;;;;;;13.03;8.73;;;6.60;58.80;;;;;;6274973;28;20473;-61
2023/03/06 03:13:09;;;;;;;10.83;8.43;;;6.60;58.70;;;;;;6275389;28;20462;-61
2023/03/06 03:16:15;;;;;;;10.30;8.70;;;6.60;58.80;;;;;;6275122;28;20493;-62
2023/03/06 03:19:18;;;;;;;11.33;8.60;;;6.60;58.60;;;;;;6274755;28;20474;-67
2023/03/06 03:22:21;;;;;;;12.80;8.90;;;6.70;58.70;;;;;;6274804;28;20478;-66
2023/03/06 03:25:26;;;;;;;11.03;7.83;;;6.70;58.70;;;;;;6274914;28;20469;-66
2023/03/06 03:28:30;;;;;;;11.13;7.63;;;6.80;58.60;;;;;;6274865;28;20458;-67
2023/03/06 03:31:33;;;;;;;9.37;7.93;;;6.80;58.50;;;;;;6274708;28;20485;-67
2023/03/06 03:34:37;;;;;;;9.57;8.20;;;6.80;58.60;;;;;;6270112;28;20454;-66
2023/03/06 03:37:40;;;;;;;10.30;9.20;;;6.80;58.60;;;;;;6249583;28;20958;-65
2023/03/06 03:40:43;;;;;;;11.90;9.27;;;6.80;58.50;;;;;;6249870;28;20772;-61
2023/03/06 03:43:48;;;;;;;10.53;7.97;;;6.80;58.50;;;;;;6249748;28;20482;-60
2023/03/06 03:46:51;;;;;;;11.10;9.10;;;6.80;58.50;;;;;;6250448;28;20475;-60
2023/03/06 03:49:54;;;;;;;10.50;8.93;;;6.80;58.60;;;;;;6250030;28;20792;-65
2023/03/06 03:52:57;;;;;;;15.40;8.97;;;6.80;58.50;;;;;;6249726;28;20485;-64
2023/03/06 03:56:01;;;;;;;13.90;9.40;;;6.80;58.50;;;;;;6249693;28;20479;-61
2023/03/06 03:59:05;;;;;;;12.67;8.70;;;6.80;58.50;;;;;;6250229;28;20482;-65
2023/03/06 04:02:09;;;;;;;12.60;8.93;;;6.80;58.50;;;;;;6259001;28;20966;-61
2023/03/06 04:05:14;;;;;;;11.43;9.37;;;6.70;58.50;;;;;;6277599;28;20684;-61
2023/03/06 04:08:17;;;;;;;10.80;8.43;;;6.70;58.80;;;;;;6279552;28;20473;-61
2023/03/06 04:11:20;;;;;;;13.23;8.47;;;6.80;58.80;;;;;;6281825;28;20473;-65
2023/03/06 04:14:25;;;;;;;11.27;8.50;;;6.80;58.60;;;;;;6292435;28;21001;-65
2023/03/06 04:17:28;;;;;;;9.87;8.70;;;6.80;58.80;;;;;;6270720;28;20481;-65
2023/03/06 04:20:31;;;;;;;12.30;9.10;;;6.80;58.80;;;;;;6280574;28;20480;-65
2023/03/06 04:23:35;;;;;;;13.77;10.83;;;6.70;58.80;;;;;;6279266;28;20492;-66
2023/03/06 04:26:38;;;;;;;12.50;9.77;;;6.60;58.90;;;;;;6247555;28;20483;-60
2023/03/06 04:29:43;;;;;;;12.83;9.47;;;6.70;59.10;;;;;;6247723;28;20471;-66
2023/03/06 04:32:46;;;;;;;12.27;9.10;;;6.70;58.90;;;;;;6254586;28;20466;-66
2023/03/06 04:35:49;;;;;;;10.97;8.53;;;6.80;58.80;;;;;;6254619;28;20482;-66
2023/03/06 04:38:52;;;;;;;11.67;8.13;;;6.80;58.80;;;;;;6254343;28;20506;-65
2023/03/06 04:41:56;;;;;;;12.33;9.30;;;6.80;58.70;;;;;;6254861;28;20951;-61
2023/03/06 04:45:00;;;;;;;9.43;8.43;;;6.70;58.80;;;;;;6254482;28;20467;-60
2023/03/06 04:48:04;;;;;;;13.20;8.90;;;6.70;58.80;;;;;;6254576;28;20471;-61
2023/03/06 04:51:07;;;;;;;11.37;9.20;;;6.70;58.80;;;;;;6254188;28;20486;-61
2023/03/06 04:54:11;;;;;;;13.73;10.00;;;6.70;58.80;;;;;;6254713;28;20481;-61
2023/03/06 04:57:14;;;;;;;11.33;9.57;;;6.70;58.90;;;;;;6254993;28;20475;-60
2023/03/06 05:00:21;;;;;;;13.93;9.50;;;6.50;58.90;;;;;;6254641;28;20467;-65
2023/03/06 05:03:25;;;;;;;12.90;8.73;;;6.50;59.20;;;;;;6275885;28;20496;-61
2023/03/06 05:06:28;;;;;;;10.70;9.17;;;6.50;59.40;;;;;;6278662;28;20485;-61
2023/03/06 05:09:31;;;;;;;11.67;8.73;;;6.50;59.20;;;;;;6277777;28;20480;-65
2023/03/06 05:12:37;;;;;;;13.67;9.90;;;6.40;59.40;;;;;;6277796;28;20469;-66
2023/03/06 05:15:42;;;;;;;14.20;9.90;;;6.50;59.60;;;;;;6276654;28;20489;-66
2023/03/06 05:18:45;;;;;;;11.30;8.93;;;6.50;59.60;;;;;;6278708;28;20490;-66
2023/03/06 05:21:50;;;;;;;16.73;10.00;;;6.40;59.60;;;;;;6274027;28;20477;-67
2023/03/06 05:24:53;;;;;;;13.57;8.80;;;6.40;59.80;;;;;;6278996;28;20474;-66
2023/03/06 05:27:57;;;;;;;13.87;10.47;;;6.50;59.80;;;;;;6278485;28;20474;-65
2023/03/06 05:31:01;;;;;;;12.20;10.27;;;6.50;59.70;;;;;;6277685;28;20834;-66
2023/03/06 05:34:05;;;;;;;10.40;8.97;;;6.50;59.40;;;;;;6277203;28;20470;-66
2023/03/06 05:37:08;;;;;;;18.13;9.60;;;6.50;59.60;;;;;;6252657;28;20482;-65
2023/03/06 05:40:13;;;;;;;13.90;9.33;;;6.50;59.60;;;;;;6252448;28;20479;-67
2023/03/06 05:43:16;;;;;;;11.00;9.03;;;6.50;59.60;;;;;;6252661;28;20487;-66
2023/03/06 05:46:21;;;;;;;12.10;8.87;;;6.50;59.40;;;;;;6252626;28;20784;-66
2023/03/06 05:49:24;;;;;;;13.70;11.00;;;6.60;59.50;;;;;;6252768;28;20506;-65
2023/03/06 05:52:27;;;;;;;13.40;9.30;;;6.60;59.40;;;;;;6252509;28;20470;-66
2023/03/06 05:55:30;;;;;;;14.63;9.17;;;6.60;59.40;;;;;;6252428;28;20899;-66
2023/03/06 05:58:34;;;;;;;12.97;9.13;;;6.60;59.30;;;;;;6252528;28;20493;-61
2023/03/06 06:01:38;;;;;;;12.00;9.63;;;6.70;59.20;;;;;;6257073;28;20442;-61
2023/03/06 06:04:42;;;;;;;10.83;8.70;;;6.70;59.10;;;;;;6278096;28;20446;-62
2023/03/06 06:07:45;;;;;;;15.13;11.10;;;6.80;58.90;;;;;;6286323;28;20473;-67
2023/03/06 06:10:48;;;;;;;11.53;9.60;;;6.80;58.80;;;;;;6281414;28;20473;-68
2023/03/06 06:13:55;;;;;;;12.13;8.90;;;6.80;58.80;;;;;;6277970;28;20477;-66
2023/03/06 06:16:59;;;;;;;12.57;8.97;;;6.90;58.70;;;;;;6277533;28;20484;-66
2023/03/06 06:20:03;;;;;;;10.10;8.70;;;6.90;58.60;;;;;;6277326;28;20466;-67
2023/03/06 06:23:06;;;;;;;14.40;8.60;;;7.00;58.40;;;;;;6272677;28;20469;-61
2023/03/06 06:26:10;;;;;;;11.53;9.60;;;7.00;58.20;;;;;;6276666;28;20474;-61
2023/03/06 06:29:14;;;;;;;13.13;9.20;;;7.10;58.00;;;;;;6276928;28;20477;-61
2023/03/06 06:32:18;;;;;;;17.13;11.50;;;7.00;58.20;;;;;;6276301;28;20797;-63
2023/03/06 06:35:21;;;;;;;12.43;9.73;;;7.10;58.30;;;;;;6265953;28;20471;-67
2023/03/06 06:38:25;;;;;;;14.17;9.93;;;7.10;58.20;;;;;;6251708;28;20521;-67
2023/03/06 06:41:29;;;;;;;12.27;9.43;;;7.10;57.90;;;;;;6251950;28;20525;-68
2023/03/06 06:44:52;;;;;;;11.77;9.10;;;7.00;57.70;;;;;;6252018;28;20606;-66
2023/03/06 06:47:56;;;;;;;15.60;10.30;;;7.10;58.00;;;;;;6251843;28;20490;-67
2023/03/06 06:51:00;;;;;;;12.73;9.40;;;7.20;57.50;;;;;;6251838;28;20536;-66
2023/03/06 06:54:03;;;;;;;10.97;9.60;;;7.10;57.50;;;;;;6251366;28;20463;-62
2023/03/06 06:57:07;;;;;;;12.90;9.53;;;7.10;57.50;;;;;;6251243;28;20606;-63
2023/03/06 07:00:14;;;;;;;15.20;9.73;;;7.10;57.70;;;;;;6250851;28;20475;-62
2023/03/06 07:03:19;;;;;;;12.77;9.40;;;7.20;57.40;;;;;;6269244;28;20495;-66
2023/03/06 07:06:22;;;;;;;15.77;9.37;;;7.40;57.50;;;;;;6275509;28;20973;-66
2023/03/06 07:09:26;;;;;;;14.17;9.97;;;7.50;57.20;;;;;;6275713;28;20470;-66
2023/03/06 07:12:31;;;;;;;12.73;9.60;;;7.50;56.90;;;;;;6275280;28;20477;-67
2023/03/06 07:15:34;;;;;;;13.13;9.77;;;7.60;56.90;;;;;;6275912;28;20466;-63
2023/03/06 07:18:39;;;;;;;12.83;10.47;;;7.60;56.80;;;;;;6276226;28;20485;-62
2023/03/06 07:21:42;;;;;;;13.27;9.27;;;7.70;56.50;;;;;;6275218;28;20779;-62
2023/03/06 07:24:46;;;;;;;13.13;9.43;;;7.80;56.80;;;;;;6275509;28;20477;-62
2023/03/06 07:27:51;;;;;;;12.10;9.17;;;7.90;56.60;;;;;;6274836;28;20478;-62
2023/03/06 07:30:56;;;;;;;12.10;9.80;;;8.10;56.30;;;;;;6275053;28;20521;-62
2023/03/06 07:34:01;;;;;;;12.53;9.83;;;8.20;55.90;;;;;;6275938;28;20466;-62
2023/03/06 07:37:07;;;;;;;11.40;10.20;;;8.40;55.40;;;;;;6225948;28;20565;-62
2023/03/06 07:40:11;;;;;;;11.43;9.90;;;8.60;55.00;;;;;;6225958;28;20479;-62
2023/03/06 07:43:14;;;;;;;11.53;9.43;;;8.90;54.50;;;;;;6237204;28;20486;-63
2023/03/06 07:46:21;;;;;;;11.97;9.50;;;9.10;54.10;;;;;;6249843;28;20520;-66
2023/03/06 07:49:26;;;;;;;11.47;9.27;;;9.40;53.20;;;;;;6250159;28;20973;-62
2023/03/06 07:52:29;;;;;;;13.23;9.13;;;9.50;52.80;;;;;;6239206;28;20460;-63
2023/03/06 07:55:32;;;;;;;14.50;9.60;;;9.70;52.20;;;;;;6227690;28;20459;-63
2023/03/06 07:58:36;;;;;;;11.97;9.30;;;9.90;51.80;;;;;;6234641;28;20479;-62
2023/03/06 08:01:39;;;;;;;15.63;9.93;;;10.00;50.00;;;;;;6237219;28;20458;-62
2023/03/06 08:04:44;;;;;;;14.10;9.43;;;9.90;50.90;;;;;;6274771;28;20442;-62
2023/03/06 08:07:47;;;;;;;14.50;9.87;;;10.20;49.60;;;;;;6282543;28;20470;-66
2023/03/06 08:10:50;;;;;;;11.90;10.00;;;10.40;48.90;;;;;;6278322;28;20546;-65
2023/03/06 08:13:54;;;;;;;12.43;11.17;;;10.70;48.80;;;;;;6276376;28;20466;-66
2023/03/06 08:16:57;;;;;;;11.47;10.00;;;10.90;48.30;;;;;;6271729;28;20476;-66
2023/03/06 08:20:02;;;;;;;13.50;10.03;;;11.10;47.90;;;;;;6238852;28;20471;-67
2023/03/06 08:23:05;;;;;;;14.10;9.73;;;11.00;47.10;;;;;;6237629;28;20459;-66
2023/03/06 08:26:12;;;;;;;12.20;8.77;;;10.70;47.40;;;;;;6225054;28;20522;-64
2023/03/06 08:29:15;;;;;;;11.90;9.27;;;10.90;48.40;;;;;;6225033;28;20487;-66
2023/03/06 08:32:18;;;;;;;13.07;10.10;;;11.30;48.70;;;;;;6225061;28;20472;-65
2023/03/06 08:35:23;;;;;;;13.33;10.77;;;11.50;46.60;;;;;;6233259;28;20538;-66
2023/03/06 08:38:26;;;;;;;12.77;10.10;;;11.90;46.20;;;;;;6248501;28;20479;-66
2023/03/06 08:41:30;;;;;;;12.30;11.00;;;12.40;45.50;;;;;;6249031;28;20501;-66
2023/03/06 08:44:33;;;;;;;13.27;10.27;;;14.00;44.10;;;;;;6249375;28;20794;-64
2023/03/06 08:47:37;;;;;;;13.00;10.67;;;15.80;40.20;;;;;;6249312;28;20934;-67
2023/03/06 08:50:42;;;;;;;10.73;9.63;;;16.80;37.80;;;;;;6250431;28;20466;-63
2023/03/06 08:53:46;;;;;;;11.33;10.10;;;17.20;36.20;;;;;;6253621;28;20474;-68
2023/03/06 08:56:49;;;;;;;11.77;10.47;;;17.10;35.60;;;;;;6253455;28;20963;-68
2023/03/06 08:59:52;;;;;;;12.07;10.73;;;16.80;35.40;;;;;;6255373;28;20471;-65
2023/03/06 09:02:55;;;;;;;15.87;11.30;;;16.50;35.40;;;;;;6268385;28;20477;-65
2023/03/06 09:06:01;;;;;;;13.47;11.23;;;16.20;35.80;;;;;;6278423;28;20465;-61
2023/03/06 09:09:05;;;;;;;10.97;9.50;;;15.70;36.00;;;;;;6276927;28;20485;-62
2023/03/06 09:12:09;;;;;;;13.20;11.53;;;15.70;36.60;;;;;;6253385;28;20963;-65
2023/03/06 09:15:13;;;;;;;15.27;12.30;;;15.80;36.20;;;;;;6253395;28;20474;-66
2023/03/06 09:18:16;;;;;;;13.87;10.80;;;15.90;37.30;;;;;;6255808;28;20495;-65
2023/03/06 09:21:21;;;;;;;13.17;11.57;;;16.00;36.30;;;;;;6267998;28;20474;-67
2023/03/06 09:24:25;;;;;;;13.40;11.43;;;16.30;36.00;;;;;;6254213;28;20474;-65
2023/03/06 09:27:28;;;;;;;13.57;12.17;;;16.70;35.60;;;;;;6253640;28;20804;-65
2023/03/06 09:30:31;;;;;;;12.40;10.70;;;17.10;34.50;;;;;;6253792;28;20471;-65
2023/03/06 09:33:34;;;;;;;13.23;11.90;;;17.60;33.90;;;;;;6253272;28;20528;-62
2023/03/06 09:36:40;;;;;;;12.57;11.27;;;17.60;33.00;;;;;;6252476;28;20482;-65
2023/03/06 09:39:59;;;;;;;14.40;12.23;;;17.40;33.40;;;;;;6252928;28;20250;-66
2023/03/06 09:43:02;;;;;;;15.37;12.13;;;17.20;33.50;;;;;;6252140;28;20474;-66
2023/03/06 09:46:18;;;;;;;15.27;11.87;;;17.20;33.60;;;;;;6228181;28;20471;-64
2023/03/06 09:49:51;;;;;;;12.87;11.50;;;17.30;33.60;;;;;;6227720;28;20476;-65
2023/03/06 09:53:12;;;;;;;19.67;12.47;;;17.50;33.50;;;;;;6227674;28;20467;-65
2023/03/06 09:56:18;;;;;;;15.93;11.70;;;17.80;33.00;;;;;;6228015;28;20226;-63
2023/03/06 09:59:24;;;;;;;12.53;11.30;;;18.10;32.40;;;;;;6227620;28;20244;-65
2023/03/06 10:02:35;;;;;;;13.70;12.30;;;18.50;32.10;;;;;;6232482;28;20681;-64
2023/03/06 10:05:42;;;;;;;16.73;13.23;;;18.50;31.70;;;;;;6228058;28;20260;-64
2023/03/06 10:08:51;;;;;;;13.33;11.93;;;18.70;31.50;;;;;;6238587;28;20291;-63
2023/03/06 10:11:58;;;;;;;14.40;13.00;;;19.00;31.20;;;;;;6243016;28;20225;-65
2023/03/06 10:15:13;;;;;;;13.67;12.10;;;19.30;30.60;;;;;;6227474;28;20240;-66
2023/03/06 10:18:17;;;;;;;15.10;12.50;;;19.60;30.10;;;;;;6227055;28;20256;-67
2023/03/06 10:21:42;;;;;;;14.03;12.53;;;19.50;30.00;;;;;;6226885;28;20735;-64
2023/03/06 10:24:54;;;;;;;13.70;12.30;;;19.20;30.00;;;;;;6227102;28;20637;-64
2023/03/06 10:28:01;;;;;;;14.37;12.80;;;19.10;30.00;;;;;;6227634;28;20229;-66
2023/03/06 10:31:11;;;;;;;13.97;12.13;;;19.00;30.40;;;;;;6226828;28;20379;-63
2023/03/06 10:34:21;;;;;;;15.37;13.10;;;19.20;30.20;;;;;;6228040;28;20317;-62
2023/03/06 10:37:28;;;;;;;13.30;11.40;;;19.10;30.20;;;;;;6250805;28;20236;-65
2023/03/06 10:40:45;;;;;;;14.60;13.10;;;19.40;29.90;;;;;;6250722;28;20339;-64
2023/03/06 10:44:23;;;;;;;16.90;13.90;;;19.30;30.00;;;;;;6242647;28;20251;-62
2023/03/06 10:47:30;;;;;;;15.70;12.30;;;19.10;30.00;;;;;;6240215;28;20310;-62
2023/03/06 10:50:33;;;;;;;14.47;12.20;;;19.10;30.00;;;;;;6241887;28;20217;-61
2023/03/06 10:53:46;;;;;;;18.07;12.47;;;18.60;30.20;;;;;;6227516;28;20224;-62
2023/03/06 10:56:51;;;;;;;16.57;12.77;;;18.20;30.90;;;;;;6226912;28;20233;-66
2023/03/06 10:59:55;;;;;;;15.43;12.77;;;17.90;31.20;;;;;;6226479;28;20237;-64
2023/03/06 11:03:16;;;;;;;104.60;42.13;;;18.10;31.60;;;;;;6257358;28;20701;-64
2023/03/06 11:06:33;;;;;;;117.13;51.60;;;18.50;31.50;;;;;;6275518;28;20223;-64
2023/03/06 11:09:37;;;;;;;16.40;13.77;;;19.00;31.00;;;;;;6275513;28;20247;-64
2023/03/06 11:12:43;;;;;;;17.27;14.50;;;19.00;30.20;;;;;;6275415;28;20231;-67
2023/03/06 11:15:57;;;;;;;15.80;13.47;;;18.40;30.50;;;;;;6281775;28;20660;-65
2023/03/06 11:19:04;;;;;;;20.63;14.37;;;18.10;31.20;;;;;;6277978;28;20227;-67
2023/03/06 11:22:17;;;;;;;15.10;13.50;;;17.00;32.60;;;;;;6276059;28;20227;-67
2023/03/06 11:25:24;;;;;;;17.73;15.17;;;16.30;33.40;;;;;;6274872;28;20231;-65
2023/03/06 11:28:32;;;;;;;17.00;13.33;;;15.90;34.20;;;;;;6275405;28;20493;-63
2023/03/06 11:31:39;;;;;;;16.10;14.30;;;15.60;34.90;;;;;;6258144;28;21214;-64
2023/03/06 11:34:48;;;;;;;19.70;12.83;;;15.30;35.50;;;;;;6250043;28;20427;-66
2023/03/06 11:37:57;;;;;;;21.03;15.60;;;14.70;36.40;;;;;;6249673;28;21097;-64
2023/03/06 11:41:05;;;;;;;15.43;12.63;;;14.60;37.00;;;;;;6232623;28;20479;-68
2023/03/06 11:44:18;;;;;;;17.50;13.40;;;14.40;37.40;;;;;;6239605;28;20467;-67
2023/03/06 11:47:25;;;;;;;19.90;14.40;;;14.20;37.70;;;;;;6247884;28;20490;-67
2023/03/06 11:50:34;;;;;;;18.13;14.13;;;14.10;38.30;;;;;;6250224;28;20471;-68
2023/03/06 11:53:39;;;;;;;15.87;12.33;;;14.00;38.80;;;;;;6250183;28;20475;-68
2023/03/06 11:56:52;;;;;;;15.40;12.80;;;13.90;38.90;;;;;;6249394;28;20831;-68
2023/03/06 12:00:07;;;;;;;19.33;15.67;;;13.90;39.20;;;;;;6249249;28;20982;-67
2023/03/06 12:03:46;;;;;;;14.80;12.83;;;13.90;39.40;;;;;;6253277;28;20740;-67
2023/03/06 12:06:57;;;;;;;17.57;14.20;;;13.80;39.40;;;;;;6249324;28;20474;-67
2023/03/06 12:10:11;;;;;;;14.70;13.20;;;13.20;40.30;;;;;;6249089;28;20467;-67
2023/03/06 12:13:28;;;;;;;15.77;13.03;;;13.20;40.70;;;;;;6249346;28;20483;-65
2023/03/06 12:16:58;;;;;;;17.97;14.20;;;13.00;41.10;;;;;;6249050;28;20440;-66
2023/03/06 12:20:22;;;;;;;27.13;14.80;;;12.90;41.30;;;;;;6233694;28;20475;-63
2023/03/06 12:23:40;;;;;;;18.20;14.00;;;12.90;41.30;;;;;;6239930;28;20479;-64
2023/03/06 12:27:08;;;;;;;17.20;14.80;;;13.00;41.60;;;;;;6252621;28;20489;-64
2023/03/06 12:30:41;;;;;;;17.50;13.83;;;12.90;41.90;;;;;;6254101;28;20486;-64
2023/03/06 12:34:06;;;;;;;21.93;13.00;;;13.00;41.70;;;;;;6229575;28;20472;-64
2023/03/06 12:37:20;;;;;;;14.93;12.37;;;13.20;42.00;;;;;;6229425;28;20460;-65
2023/03/06 12:40:48;;;;;;;16.40;13.83;;;13.30;41.50;;;;;;6246355;28;20863;-66
2023/03/06 12:44:22;;;;;;;17.97;13.53;;;13.30;41.50;;;;;;6254020;28;20478;-67
2023/03/06 12:47:27;;;;;;;20.10;14.07;;;13.20;41.40;;;;;;6253389;28;20486;-66
2023/03/06 12:50:35;;;;;;;17.20;12.97;;;13.20;41.70;;;;;;6253626;28;20540;-67
2023/03/06 12:53:41;;;;;;;16.30;12.70;;;13.00;41.80;;;;;;6232304;28;20472;-66
2023/03/06 12:56:45;;;;;;;15.07;13.20;;;12.70;42.10;;;;;;6234644;28;20974;-65
2023/03/06 12:59:49;;;;;;;16.30;13.37;;;12.50;42.70;;;;;;6232494;28;20779;-64
2023/03/06 13:03:17;;;;;;;17.63;14.20;;;12.50;43.20;;;;;;6259112;28;20466;-64
2023/03/06 13:06:49;;;;;;;16.57;13.60;;;12.40;43.60;;;;;;6281839;28;20478;-62
2023/03/06 13:10:11;;;;;;;18.00;14.53;;;12.20;43.80;;;;;;6279388;28;20572;-63
2023/03/06 13:13:32;;;;;;;14.53;12.40;;;12.30;44.00;;;;;;6278540;28;20474;-62
2023/03/06 13:16:36;;;;;;;20.93;18.17;;;12.10;44.30;;;;;;6278186;28;20454;-62
2023/03/06 13:19:39;;;;;;;16.77;12.77;;;12.10;44.30;;;;;;6278345;28;20484;-62
2023/03/06 13:22:46;;;;;;;15.57;13.10;;;12.10;44.50;;;;;;6278012;28;20453;-62
2023/03/06 13:25:50;;;;;;;15.63;12.50;;;12.00;44.90;;;;;;6278088;28;20463;-62
2023/03/06 13:28:55;;;;;;;18.13;13.90;;;11.90;45.20;;;;;;6277480;28;20461;-62
2023/03/06 13:32:16;;;;;;;17.93;14.47;;;12.00;45.30;;;;;;6271901;28;20474;-62
2023/03/06 13:35:48;;;;;;;18.43;14.00;;;11.90;45.00;;;;;;6252322;28;20556;-62
2023/03/06 13:39:04;;;;;;;17.00;13.23;;;11.80;45.40;;;;;;6238341;28;20474;-65
2023/03/06 13:42:26;;;;;;;18.87;13.40;;;11.90;46.20;;;;;;6234911;28;20471;-66
2023/03/06 13:45:34;;;;;;;17.80;14.47;;;12.00;45.70;;;;;;6247745;28;20467;-65
2023/03/06 13:48:37;;;;;;;18.27;13.60;;;12.10;45.50;;;;;;6252362;28;20967;-64
2023/03/06 13:52:06;;;;;;;14.90;13.30;;;12.20;45.20;;;;;;6240945;28;20472;-66
2023/03/06 13:55:22;;;;;;;14.40;12.90;;;12.20;44.90;;;;;;6234015;28;20474;-67
2023/03/06 13:58:41;;;;;;;18.07;14.10;;;12.20;45.10;;;;;;6235296;28;20504;-67
2023/03/06 14:01:54;;;;;;;19.47;14.40;;;12.30;45.40;;;;;;6240281;28;20957;-66
2023/03/06 14:04:58;;;;;;;15.93;13.30;;;12.20;45.00;;;;;;6276367;28;20470;-66
2023/03/06 14:08:07;;;;;;;16.10;13.40;;;11.70;45.70;;;;;;6277529;28;20474;-66
2023/03/06 14:11:20;;;;;;;17.10;14.10;;;11.30;46.80;;;;;;6276719;28;20466;-67
2023/03/06 14:14:32;;;;;;;15.07;12.90;;;11.20;47.20;;;;;;6276821;28;20462;-66
2023/03/06 14:17:38;;;;;;;18.53;14.47;;;11.20;47.30;;;;;;6276096;28;20475;-67
2023/03/06 14:20:43;;;;;;;21.80;14.10;;;11.20;47.60;;;;;;6277096;28;20466;-68
2023/03/06 14:23:46;;;;;;;18.07;14.93;;;11.20;47.50;;;;;;6276651;28;20475;-67
2023/03/06 14:26:52;;;;;;;18.93;13.50;;;11.20;47.90;;;;;;6276602;28;20481;-65
2023/03/06 14:30:06;;;;;;;15.47;13.73;;;11.10;48.10;;;;;;6241813;28;20494;-62
2023/03/06 14:33:11;;;;;;;17.00;12.80;;;10.80;48.60;;;;;;6241768;28;20467;-64
2023/03/06 14:36:18;;;;;;;17.60;14.43;;;10.70;49.00;;;;;;6249546;28;20494;-63
2023/03/06 14:39:33;;;;;;;17.10;15.40;;;10.70;49.20;;;;;;6250131;28;20482;-63
2023/03/06 14:42:38;;;;;;;16.77;14.00;;;10.80;49.40;;;;;;6251411;28;20463;-63
2023/03/06 14:45:53;;;;;;;15.87;13.10;;;10.70;49.40;;;;;;6251164;28;20851;-63
2023/03/06 14:48:59;;;;;;;22.00;14.40;;;10.80;49.40;;;;;;6251429;28;20475;-62
2023/03/06 14:52:03;;;;;;;18.50;15.63;;;10.80;49.40;;;;;;6251229;28;20990;-62
2023/03/06 14:55:10;;;;;;;18.60;14.73;;;10.90;49.50;;;;;;6254123;28;20479;-63
2023/03/06 14:58:20;;;;;;;19.33;15.07;;;11.00;49.50;;;;;;6255193;28;20471;-64
2023/03/06 15:01:31;;;;;;;19.90;13.73;;;10.80;49.50;;;;;;6250764;28;20482;-63
2023/03/06 15:04:38;;;;;;;18.00;15.73;;;10.80;49.70;;;;;;6251411;28;20467;-63
2023/03/06 15:07:42;;;;;;;18.30;14.40;;;10.80;49.90;;;;;;6250742;28;20854;-63
2023/03/06 15:10:56;;;;;;;22.00;17.10;;;10.70;50.00;;;;;;6250939;28;20455;-63
2023/03/06 15:14:05;;;;;;;21.10;16.10;;;10.70;50.20;;;;;;6249791;28;20954;-63
2023/03/06 15:17:25;;;;;;;21.67;15.40;;;10.60;50.20;;;;;;6240826;28;20482;-64
2023/03/06 15:20:41;;;;;;;22.03;14.23;;;10.60;50.40;;;;;;6242422;28;20507;-66
2023/03/06 15:23:46;;;;;;;15.70;14.00;;;10.60;50.70;;;;;;6239713;28;20493;-63
2023/03/06 15:27:01;;;;;;;19.40;14.30;;;10.60;50.70;;;;;;6235889;28;20812;-63
2023/03/06 15:30:21;;;;;;;19.43;14.13;;;10.50;50.90;;;;;;6225714;28;20472;-63
2023/03/06 15:33:26;;;;;;;17.33;14.27;;;10.60;50.90;;;;;;6240585;28;20474;-63
2023/03/06 15:36:31;;;;;;;17.97;13.93;;;10.60;50.70;;;;;;6248617;28;20463;-64
2023/03/06 15:39:37;;;;;;;15.97;14.27;;;10.50;50.90;;;;;;6248315;28;20475;-64
2023/03/06 15:42:42;;;;;;;21.00;15.10;;;10.40;51.00;;;;;;6228341;28;21020;-64
2023/03/06 15:45:47;;;;;;;23.63;18.10;;;10.40;51.20;;;;;;6232799;28;20467;-64
2023/03/06 15:48:54;;;;;;;20.33;15.50;;;10.40;51.40;;;;;;6225226;28;20476;-65
2023/03/06 15:51:57;;;;;;;16.90;12.93;;;10.40;51.40;;;;;;6225544;28;20948;-64
2023/03/06 15:55:01;;;;;;;21.07;14.87;;;10.40;51.10;;;;;;6219831;28;20966;-64
2023/03/06 15:58:04;;;;;;;18.80;14.57;;;10.40;51.30;;;;;;6225638;28;20483;-63
2023/03/06 16:01:15;;;;;;;21.40;15.00;;;10.30;51.50;;;;;;6231920;28;20867;-63
2023/03/06 16:04:18;;;;;;;20.37;14.50;;;10.30;51.80;;;;;;6253836;28;20486;-65